sensor_id;sensor_type;location;lat;lon;timestamp;P1;durP1;ratioP1;P2;durP2;ratioP2
54157;SDS011;40065;49.894;10.358;2022-12-07T00:00:39;14.20;;;7.60;;
54157;SDS011;40065;49.894;10.358;2022-12-07T00:05:41;13.30;;;8.23;;
54157;SDS011;40065;49.894;10.358;2022-12-07T00:10:43;11.60;;;7.57;;
54157;SDS011;40065;49.894;10.358;2022-12-07T00:15:45;14.10;;;7.82;;
54157;SDS011;40065;49.894;10.358;2022-12-07T00:20:47;12.75;;;7.57;;
54157;SDS011;40065;49.894;10.358;2022-12-07T00:25:48;17.40;;;9.20;;
54157;SDS011;40065;49.894;10.358;2022-12-07T00:30:50;12.93;;;7.68;;
54157;SDS011;40065;49.894;10.358;2022-12-07T00:35:56;14.65;;;8.57;;
54157;SDS011;40065;49.894;10.358;2022-12-07T00:40:59;15.32;;;8.63;;
54157;SDS011;40065;49.894;10.358;2022-12-07T00:46:02;13.13;;;8.27;;
54157;SDS011;40065;49.894;10.358;2022-12-07T00:51:05;15.18;;;9.05;;
54157;SDS011;40065;49.894;10.358;2022-12-07T00:56:08;18.38;;;8.98;;
54157;SDS011;40065;49.894;10.358;2022-12-07T01:01:12;15.05;;;9.00;;
54157;SDS011;40065;49.894;10.358;2022-12-07T01:06:14;18.33;;;10.18;;
54157;SDS011;40065;49.894;10.358;2022-12-07T01:11:18;15.23;;;8.65;;
54157;SDS011;40065;49.894;10.358;2022-12-07T01:16:23;15.93;;;8.73;;
54157;SDS011;40065;49.894;10.358;2022-12-07T01:21:27;19.50;;;10.57;;
54157;SDS011;40065;49.894;10.358;2022-12-07T01:26:31;18.73;;;9.77;;
54157;SDS011;40065;49.894;10.358;2022-12-07T01:31:33;18.75;;;9.95;;
54157;SDS011;40065;49.894;10.358;2022-12-07T01:36:36;20.75;;;11.05;;
54157;SDS011;40065;49.894;10.358;2022-12-07T01:41:39;18.20;;;10.15;;
54157;SDS011;40065;49.894;10.358;2022-12-07T01:47:07;16.55;;;8.10;;
54157;SDS011;40065;49.894;10.358;2022-12-07T01:52:15;13.27;;;7.32;;
54157;SDS011;40065;49.894;10.358;2022-12-07T01:57:29;16.30;;;8.57;;
54157;SDS011;40065;49.894;10.358;2022-12-07T02:02:36;16.13;;;9.25;;
54157;SDS011;40065;49.894;10.358;2022-12-07T02:07:42;18.35;;;9.95;;
54157;SDS011;40065;49.894;10.358;2022-12-07T02:12:50;19.23;;;9.60;;
54157;SDS011;40065;49.894;10.358;2022-12-07T02:18:00;20.67;;;11.48;;
54157;SDS011;40065;49.894;10.358;2022-12-07T02:34:09;19.27;;;11.05;;
54157;SDS011;40065;49.894;10.358;2022-12-07T02:39:24;18.30;;;10.40;;
54157;SDS011;40065;49.894;10.358;2022-12-07T02:44:48;19.17;;;10.75;;
54157;SDS011;40065;49.894;10.358;2022-12-07T02:49:50;22.00;;;11.48;;
54157;SDS011;40065;49.894;10.358;2022-12-07T02:54:53;17.98;;;10.52;;
54157;SDS011;40065;49.894;10.358;2022-12-07T03:15:34;27.13;;;12.85;;
54157;SDS011;40065;49.894;10.358;2022-12-07T03:20:47;23.10;;;11.55;;
54157;SDS011;40065;49.894;10.358;2022-12-07T03:25:52;23.50;;;12.70;;
54157;SDS011;40065;49.894;10.358;2022-12-07T03:31:03;23.75;;;11.50;;
54157;SDS011;40065;49.894;10.358;2022-12-07T03:36:47;24.00;;;11.45;;
54157;SDS011;40065;49.894;10.358;2022-12-07T03:41:46;22.92;;;12.55;;
54157;SDS011;40065;49.894;10.358;2022-12-07T03:57:29;20.17;;;11.25;;
54157;SDS011;40065;49.894;10.358;2022-12-07T04:02:33;20.37;;;11.03;;
54157;SDS011;40065;49.894;10.358;2022-12-07T04:07:36;21.58;;;11.98;;
54157;SDS011;40065;49.894;10.358;2022-12-07T04:12:38;25.52;;;12.30;;
54157;SDS011;40065;49.894;10.358;2022-12-07T04:17:40;22.67;;;11.85;;
54157;SDS011;40065;49.894;10.358;2022-12-07T04:22:42;22.83;;;11.85;;
54157;SDS011;40065;49.894;10.358;2022-12-07T04:27:44;26.63;;;12.27;;
54157;SDS011;40065;49.894;10.358;2022-12-07T04:32:46;24.67;;;12.50;;
54157;SDS011;40065;49.894;10.358;2022-12-07T04:37:47;28.42;;;12.82;;
54157;SDS011;40065;49.894;10.358;2022-12-07T04:42:49;33.92;;;13.52;;
54157;SDS011;40065;49.894;10.358;2022-12-07T04:47:51;27.90;;;13.30;;
54157;SDS011;40065;49.894;10.358;2022-12-07T04:52:53;28.90;;;13.55;;
54157;SDS011;40065;49.894;10.358;2022-12-07T04:57:54;27.85;;;13.32;;
54157;SDS011;40065;49.894;10.358;2022-12-07T05:02:56;32.03;;;13.30;;
54157;SDS011;40065;49.894;10.358;2022-12-07T05:07:58;28.58;;;14.57;;
54157;SDS011;40065;49.894;10.358;2022-12-07T05:13:00;33.03;;;14.57;;
54157;SDS011;40065;49.894;10.358;2022-12-07T05:18:02;27.35;;;13.35;;
54157;SDS011;40065;49.894;10.358;2022-12-07T05:23:04;30.55;;;15.13;;
54157;SDS011;40065;49.894;10.358;2022-12-07T05:28:06;30.25;;;14.63;;
54157;SDS011;40065;49.894;10.358;2022-12-07T05:33:08;32.13;;;14.93;;
54157;SDS011;40065;49.894;10.358;2022-12-07T05:38:09;28.50;;;14.38;;
54157;SDS011;40065;49.894;10.358;2022-12-07T05:43:11;29.58;;;14.48;;
54157;SDS011;40065;49.894;10.358;2022-12-07T05:48:13;34.05;;;15.38;;
54157;SDS011;40065;49.894;10.358;2022-12-07T05:53:15;23.45;;;11.93;;
54157;SDS011;40065;49.894;10.358;2022-12-07T05:58:23;23.42;;;11.73;;
54157;SDS011;40065;49.894;10.358;2022-12-07T06:03:43;23.20;;;11.07;;
54157;SDS011;40065;49.894;10.358;2022-12-07T06:08:46;21.25;;;11.05;;
54157;SDS011;40065;49.894;10.358;2022-12-07T06:13:48;20.58;;;10.07;;
54157;SDS011;40065;49.894;10.358;2022-12-07T06:18:50;18.92;;;9.95;;
54157;SDS011;40065;49.894;10.358;2022-12-07T06:23:52;18.73;;;9.10;;
54157;SDS011;40065;49.894;10.358;2022-12-07T06:28:53;15.32;;;8.38;;
54157;SDS011;40065;49.894;10.358;2022-12-07T06:33:59;16.65;;;9.35;;
54157;SDS011;40065;49.894;10.358;2022-12-07T06:39:12;19.40;;;9.60;;
54157;SDS011;40065;49.894;10.358;2022-12-07T06:44:14;18.27;;;9.75;;
54157;SDS011;40065;49.894;10.358;2022-12-07T06:49:15;19.00;;;10.02;;
54157;SDS011;40065;49.894;10.358;2022-12-07T06:54:17;19.08;;;9.70;;
54157;SDS011;40065;49.894;10.358;2022-12-07T06:59:19;19.55;;;9.07;;
54157;SDS011;40065;49.894;10.358;2022-12-07T07:04:21;20.35;;;9.75;;
54157;SDS011;40065;49.894;10.358;2022-12-07T07:09:23;18.85;;;9.20;;
54157;SDS011;40065;49.894;10.358;2022-12-07T07:14:24;19.45;;;10.00;;
54157;SDS011;40065;49.894;10.358;2022-12-07T07:19:26;19.20;;;10.13;;
54157;SDS011;40065;49.894;10.358;2022-12-07T07:24:28;18.65;;;9.75;;
54157;SDS011;40065;49.894;10.358;2022-12-07T07:29:30;19.92;;;10.77;;
54157;SDS011;40065;49.894;10.358;2022-12-07T07:34:32;24.73;;;11.38;;
54157;SDS011;40065;49.894;10.358;2022-12-07T07:39:33;24.60;;;11.52;;
54157;SDS011;40065;49.894;10.358;2022-12-07T07:44:35;21.55;;;10.80;;
54157;SDS011;40065;49.894;10.358;2022-12-07T07:49:37;22.85;;;11.30;;
54157;SDS011;40065;49.894;10.358;2022-12-07T07:54:46;23.75;;;11.52;;
54157;SDS011;40065;49.894;10.358;2022-12-07T07:59:48;23.27;;;10.40;;
54157;SDS011;40065;49.894;10.358;2022-12-07T08:04:50;21.13;;;11.25;;
54157;SDS011;40065;49.894;10.358;2022-12-07T08:09:52;23.95;;;12.20;;
54157;SDS011;40065;49.894;10.358;2022-12-07T08:14:54;26.33;;;12.02;;
54157;SDS011;40065;49.894;10.358;2022-12-07T08:19:56;25.83;;;11.73;;
54157;SDS011;40065;49.894;10.358;2022-12-07T08:24:58;23.33;;;11.20;;
54157;SDS011;40065;49.894;10.358;2022-12-07T08:29:59;21.13;;;10.60;;
54157;SDS011;40065;49.894;10.358;2022-12-07T08:35:02;21.42;;;10.57;;
54157;SDS011;40065;49.894;10.358;2022-12-07T08:40:04;24.38;;;11.07;;
54157;SDS011;40065;49.894;10.358;2022-12-07T08:45:08;23.42;;;11.75;;
54157;SDS011;40065;49.894;10.358;2022-12-07T08:50:12;26.25;;;11.32;;
54157;SDS011;40065;49.894;10.358;2022-12-07T08:55:14;23.85;;;11.10;;
54157;SDS011;40065;49.894;10.358;2022-12-07T09:00:16;21.90;;;11.50;;
54157;SDS011;40065;49.894;10.358;2022-12-07T09:05:18;24.60;;;11.63;;
54157;SDS011;40065;49.894;10.358;2022-12-07T09:10:20;22.05;;;11.93;;
54157;SDS011;40065;49.894;10.358;2022-12-07T09:15:22;22.98;;;12.23;;
54157;SDS011;40065;49.894;10.358;2022-12-07T09:20:24;22.30;;;11.40;;
54157;SDS011;40065;49.894;10.358;2022-12-07T09:25:28;22.67;;;11.25;;
54157;SDS011;40065;49.894;10.358;2022-12-07T09:30:30;22.63;;;11.60;;
54157;SDS011;40065;49.894;10.358;2022-12-07T09:35:32;24.70;;;12.23;;
54157;SDS011;40065;49.894;10.358;2022-12-07T09:40:33;25.67;;;12.70;;
54157;SDS011;40065;49.894;10.358;2022-12-07T09:45:35;22.83;;;12.93;;
54157;SDS011;40065;49.894;10.358;2022-12-07T09:50:38;24.38;;;12.70;;
54157;SDS011;40065;49.894;10.358;2022-12-07T09:55:41;23.65;;;12.75;;
54157;SDS011;40065;49.894;10.358;2022-12-07T10:00:44;26.88;;;12.82;;
54157;SDS011;40065;49.894;10.358;2022-12-07T10:05:47;24.38;;;12.23;;
54157;SDS011;40065;49.894;10.358;2022-12-07T10:10:52;20.10;;;12.23;;
54157;SDS011;40065;49.894;10.358;2022-12-07T10:15:57;23.23;;;12.77;;
54157;SDS011;40065;49.894;10.358;2022-12-07T10:21:17;22.80;;;11.65;;
54157;SDS011;40065;49.894;10.358;2022-12-07T10:31:32;19.65;;;11.38;;
54157;SDS011;40065;49.894;10.358;2022-12-07T10:36:34;20.38;;;13.25;;
54157;SDS011;40065;49.894;10.358;2022-12-07T10:41:53;18.10;;;10.63;;
54157;SDS011;40065;49.894;10.358;2022-12-07T10:58:00;15.45;;;9.10;;
54157;SDS011;40065;49.894;10.358;2022-12-07T11:19:06;18.27;;;10.32;;
54157;SDS011;40065;49.894;10.358;2022-12-07T11:24:17;17.77;;;10.60;;
54157;SDS011;40065;49.894;10.358;2022-12-07T11:45:29;16.13;;;9.88;;
54157;SDS011;40065;49.894;10.358;2022-12-07T11:50:53;16.08;;;9.57;;
54157;SDS011;40065;49.894;10.358;2022-12-07T12:06:28;17.17;;;8.88;;
54157;SDS011;40065;49.894;10.358;2022-12-07T12:22:15;17.45;;;8.63;;
54157;SDS011;40065;49.894;10.358;2022-12-07T12:27:40;16.92;;;8.18;;
54157;SDS011;40065;49.894;10.358;2022-12-07T12:32:46;16.27;;;7.80;;
54157;SDS011;40065;49.894;10.358;2022-12-07T12:37:49;11.85;;;7.45;;
54157;SDS011;40065;49.894;10.358;2022-12-07T12:42:54;13.70;;;8.07;;
54157;SDS011;40065;49.894;10.358;2022-12-07T12:48:00;15.45;;;7.22;;
54157;SDS011;40065;49.894;10.358;2022-12-07T12:53:21;11.23;;;7.18;;
54157;SDS011;40065;49.894;10.358;2022-12-07T12:58:33;12.60;;;6.20;;
54157;SDS011;40065;49.894;10.358;2022-12-07T13:03:38;12.60;;;6.78;;
54157;SDS011;40065;49.894;10.358;2022-12-07T13:08:40;13.80;;;7.97;;
54157;SDS011;40065;49.894;10.358;2022-12-07T13:13:43;14.65;;;5.60;;
54157;SDS011;40065;49.894;10.358;2022-12-07T13:18:44;11.18;;;6.55;;
54157;SDS011;40065;49.894;10.358;2022-12-07T13:33:54;11.52;;;5.53;;
54157;SDS011;40065;49.894;10.358;2022-12-07T13:38:57;9.23;;;5.50;;
54157;SDS011;40065;49.894;10.358;2022-12-07T13:44:07;10.17;;;6.10;;
54157;SDS011;40065;49.894;10.358;2022-12-07T13:49:17;11.93;;;5.90;;
54157;SDS011;40065;49.894;10.358;2022-12-07T13:54:24;12.35;;;5.32;;
54157;SDS011;40065;49.894;10.358;2022-12-07T13:59:26;11.57;;;6.00;;
54157;SDS011;40065;49.894;10.358;2022-12-07T14:04:33;10.00;;;5.53;;
54157;SDS011;40065;49.894;10.358;2022-12-07T14:09:38;8.00;;;4.85;;
54157;SDS011;40065;49.894;10.358;2022-12-07T14:14:40;7.45;;;4.40;;
54157;SDS011;40065;49.894;10.358;2022-12-07T14:30:15;7.75;;;4.30;;
54157;SDS011;40065;49.894;10.358;2022-12-07T14:35:18;8.63;;;4.43;;
54157;SDS011;40065;49.894;10.358;2022-12-07T14:40:21;11.18;;;5.35;;
54157;SDS011;40065;49.894;10.358;2022-12-07T14:45:25;9.20;;;5.10;;
54157;SDS011;40065;49.894;10.358;2022-12-07T14:50:26;10.10;;;5.53;;
54157;SDS011;40065;49.894;10.358;2022-12-07T14:55:30;10.80;;;6.00;;
54157;SDS011;40065;49.894;10.358;2022-12-07T15:00:32;13.77;;;6.75;;
54157;SDS011;40065;49.894;10.358;2022-12-07T15:05:35;9.60;;;5.68;;
54157;SDS011;40065;49.894;10.358;2022-12-07T15:10:38;7.00;;;4.68;;
54157;SDS011;40065;49.894;10.358;2022-12-07T15:15:41;7.72;;;4.30;;
54157;SDS011;40065;49.894;10.358;2022-12-07T15:20:43;7.45;;;4.07;;
54157;SDS011;40065;49.894;10.358;2022-12-07T15:25:46;6.05;;;3.90;;
54157;SDS011;40065;49.894;10.358;2022-12-07T15:30:49;9.27;;;4.65;;
54157;SDS011;40065;49.894;10.358;2022-12-07T15:35:51;7.38;;;3.95;;
54157;SDS011;40065;49.894;10.358;2022-12-07T15:40:53;9.90;;;4.85;;
54157;SDS011;40065;49.894;10.358;2022-12-07T15:45:54;9.13;;;4.68;;
54157;SDS011;40065;49.894;10.358;2022-12-07T15:51:03;10.80;;;5.35;;
54157;SDS011;40065;49.894;10.358;2022-12-07T15:56:07;8.00;;;4.30;;
54157;SDS011;40065;49.894;10.358;2022-12-07T16:01:10;8.60;;;4.88;;
54157;SDS011;40065;49.894;10.358;2022-12-07T16:06:15;11.57;;;5.90;;
54157;SDS011;40065;49.894;10.358;2022-12-07T16:11:18;11.05;;;6.25;;
54157;SDS011;40065;49.894;10.358;2022-12-07T16:16:20;12.32;;;6.70;;
54157;SDS011;40065;49.894;10.358;2022-12-07T16:21:23;12.30;;;6.47;;
54157;SDS011;40065;49.894;10.358;2022-12-07T16:26:26;13.82;;;7.18;;
54157;SDS011;40065;49.894;10.358;2022-12-07T16:31:28;12.95;;;7.00;;
54157;SDS011;40065;49.894;10.358;2022-12-07T16:36:31;14.93;;;8.52;;
54157;SDS011;40065;49.894;10.358;2022-12-07T16:41:52;18.25;;;9.48;;
54157;SDS011;40065;49.894;10.358;2022-12-07T16:46:54;10.98;;;6.82;;
54157;SDS011;40065;49.894;10.358;2022-12-07T16:51:56;12.27;;;6.82;;
54157;SDS011;40065;49.894;10.358;2022-12-07T16:57:18;13.57;;;7.85;;
54157;SDS011;40065;49.894;10.358;2022-12-07T17:02:24;16.98;;;9.50;;
54157;SDS011;40065;49.894;10.358;2022-12-07T17:07:25;14.45;;;8.70;;
54157;SDS011;40065;49.894;10.358;2022-12-07T17:12:27;13.00;;;7.47;;
54157;SDS011;40065;49.894;10.358;2022-12-07T17:17:29;15.70;;;9.27;;
54157;SDS011;40065;49.894;10.358;2022-12-07T17:22:32;21.10;;;11.07;;
54157;SDS011;40065;49.894;10.358;2022-12-07T17:27:33;19.58;;;10.65;;
54157;SDS011;40065;49.894;10.358;2022-12-07T17:32:35;20.02;;;11.05;;
54157;SDS011;40065;49.894;10.358;2022-12-07T17:37:37;26.23;;;13.65;;
54157;SDS011;40065;49.894;10.358;2022-12-07T17:42:39;33.70;;;16.50;;
54157;SDS011;40065;49.894;10.358;2022-12-07T17:47:41;29.75;;;16.25;;
54157;SDS011;40065;49.894;10.358;2022-12-07T17:52:43;27.58;;;13.68;;
54157;SDS011;40065;49.894;10.358;2022-12-07T17:58:26;29.23;;;13.18;;
54157;SDS011;40065;49.894;10.358;2022-12-07T18:03:27;24.30;;;13.25;;
54157;SDS011;40065;49.894;10.358;2022-12-07T18:08:29;23.65;;;12.40;;
54157;SDS011;40065;49.894;10.358;2022-12-07T18:13:36;21.00;;;11.68;;
54157;SDS011;40065;49.894;10.358;2022-12-07T18:18:38;20.65;;;10.30;;
54157;SDS011;40065;49.894;10.358;2022-12-07T18:23:42;17.55;;;9.55;;
54157;SDS011;40065;49.894;10.358;2022-12-07T18:28:45;14.30;;;7.33;;
54157;SDS011;40065;49.894;10.358;2022-12-07T18:33:47;11.93;;;6.28;;
54157;SDS011;40065;49.894;10.358;2022-12-07T18:38:49;16.58;;;7.72;;
54157;SDS011;40065;49.894;10.358;2022-12-07T18:43:52;14.43;;;7.28;;
54157;SDS011;40065;49.894;10.358;2022-12-07T18:48:53;12.10;;;7.10;;
54157;SDS011;40065;49.894;10.358;2022-12-07T18:53:57;16.05;;;8.05;;
54157;SDS011;40065;49.894;10.358;2022-12-07T18:59:01;14.82;;;7.88;;
54157;SDS011;40065;49.894;10.358;2022-12-07T19:04:22;15.55;;;8.43;;
54157;SDS011;40065;49.894;10.358;2022-12-07T19:09:24;18.08;;;9.00;;
54157;SDS011;40065;49.894;10.358;2022-12-07T19:14:33;18.48;;;9.40;;
54157;SDS011;40065;49.894;10.358;2022-12-07T19:19:38;20.77;;;11.52;;
54157;SDS011;40065;49.894;10.358;2022-12-07T19:24:42;23.35;;;12.48;;
54157;SDS011;40065;49.894;10.358;2022-12-07T19:29:46;29.27;;;14.93;;
54157;SDS011;40065;49.894;10.358;2022-12-07T19:34:49;26.98;;;14.60;;
54157;SDS011;40065;49.894;10.358;2022-12-07T19:39:51;31.73;;;16.73;;
54157;SDS011;40065;49.894;10.358;2022-12-07T19:44:53;27.42;;;15.73;;
54157;SDS011;40065;49.894;10.358;2022-12-07T19:49:55;31.13;;;16.17;;
54157;SDS011;40065;49.894;10.358;2022-12-07T19:54:57;32.83;;;17.35;;
54157;SDS011;40065;49.894;10.358;2022-12-07T19:59:58;29.15;;;15.55;;
54157;SDS011;40065;49.894;10.358;2022-12-07T20:05:00;31.88;;;17.10;;
54157;SDS011;40065;49.894;10.358;2022-12-07T20:10:06;30.40;;;16.90;;
54157;SDS011;40065;49.894;10.358;2022-12-07T20:15:09;32.40;;;16.98;;
54157;SDS011;40065;49.894;10.358;2022-12-07T20:20:10;30.90;;;17.20;;
54157;SDS011;40065;49.894;10.358;2022-12-07T20:25:12;35.30;;;18.52;;
54157;SDS011;40065;49.894;10.358;2022-12-07T20:30:17;35.83;;;19.15;;
54157;SDS011;40065;49.894;10.358;2022-12-07T20:35:19;41.10;;;19.92;;
54157;SDS011;40065;49.894;10.358;2022-12-07T20:40:21;41.08;;;18.90;;
54157;SDS011;40065;49.894;10.358;2022-12-07T20:45:23;43.22;;;19.42;;
54157;SDS011;40065;49.894;10.358;2022-12-07T20:50:24;39.03;;;18.65;;
54157;SDS011;40065;49.894;10.358;2022-12-07T20:55:26;47.53;;;22.00;;
54157;SDS011;40065;49.894;10.358;2022-12-07T21:00:28;40.30;;;19.98;;
54157;SDS011;40065;49.894;10.358;2022-12-07T21:05:30;37.33;;;18.85;;
54157;SDS011;40065;49.894;10.358;2022-12-07T21:10:31;44.13;;;19.73;;
54157;SDS011;40065;49.894;10.358;2022-12-07T21:15:33;37.58;;;19.77;;
54157;SDS011;40065;49.894;10.358;2022-12-07T21:20:35;41.10;;;20.67;;
54157;SDS011;40065;49.894;10.358;2022-12-07T21:25:37;42.47;;;20.75;;
54157;SDS011;40065;49.894;10.358;2022-12-07T21:30:38;37.22;;;20.02;;
54157;SDS011;40065;49.894;10.358;2022-12-07T21:36:05;42.80;;;20.42;;
54157;SDS011;40065;49.894;10.358;2022-12-07T21:41:18;41.00;;;19.88;;
54157;SDS011;40065;49.894;10.358;2022-12-07T21:46:22;44.90;;;20.60;;
54157;SDS011;40065;49.894;10.358;2022-12-07T21:51:31;45.22;;;21.38;;
54157;SDS011;40065;49.894;10.358;2022-12-07T21:56:35;52.58;;;22.00;;
54157;SDS011;40065;49.894;10.358;2022-12-07T22:06:41;52.17;;;22.35;;
54157;SDS011;40065;49.894;10.358;2022-12-07T22:11:43;50.15;;;22.15;;
54157;SDS011;40065;49.894;10.358;2022-12-07T22:16:45;52.30;;;23.02;;
54157;SDS011;40065;49.894;10.358;2022-12-07T22:21:47;49.95;;;23.13;;
54157;SDS011;40065;49.894;10.358;2022-12-07T22:26:49;49.75;;;21.38;;
54157;SDS011;40065;49.894;10.358;2022-12-07T22:31:51;49.30;;;22.42;;
54157;SDS011;40065;49.894;10.358;2022-12-07T22:36:54;48.30;;;22.40;;
54157;SDS011;40065;49.894;10.358;2022-12-07T22:41:56;53.83;;;22.85;;
54157;SDS011;40065;49.894;10.358;2022-12-07T22:46:58;51.83;;;22.60;;
54157;SDS011;40065;49.894;10.358;2022-12-07T22:52:00;47.30;;;22.42;;
54157;SDS011;40065;49.894;10.358;2022-12-07T22:57:02;43.60;;;20.60;;
54157;SDS011;40065;49.894;10.358;2022-12-07T23:02:03;46.30;;;21.48;;
54157;SDS011;40065;49.894;10.358;2022-12-07T23:07:05;42.90;;;21.95;;
54157;SDS011;40065;49.894;10.358;2022-12-07T23:12:08;44.55;;;21.73;;
54157;SDS011;40065;49.894;10.358;2022-12-07T23:17:28;47.85;;;21.77;;
54157;SDS011;40065;49.894;10.358;2022-12-07T23:22:30;44.45;;;21.45;;
54157;SDS011;40065;49.894;10.358;2022-12-07T23:27:32;45.38;;;22.00;;
54157;SDS011;40065;49.894;10.358;2022-12-07T23:32:35;40.08;;;20.48;;
54157;SDS011;40065;49.894;10.358;2022-12-07T23:37:36;47.75;;;20.92;;
54157;SDS011;40065;49.894;10.358;2022-12-07T23:42:38;47.00;;;21.35;;
54157;SDS011;40065;49.894;10.358;2022-12-07T23:47:40;42.05;;;22.00;;
54157;SDS011;40065;49.894;10.358;2022-12-07T23:52:42;47.35;;;22.52;;
54157;SDS011;40065;49.894;10.358;2022-12-07T23:57:43;43.85;;;21.95;;
